Chalfont Saint Peter, United Kingdom
Current Conditions -  °F | °C
As of 1:50 AM on Sunday 23 Nov 2014 (Local Time) from EGWU Reporting Station
Broken Clouds Broken Clouds  
Wind Chill: 52°   Ceiling: 2100
Heat Index: 52°   Visibility: 6mi
Dew Point: 50°   Wind: 7mph
Humidity: 94%   Direction: 350°N
Pressure: 29.94"   Gusts: NA
Location:  51.61°N, 0.56°W
Report Text: EGWU 230150Z AUTO 35006KT 9999 // BKN021/// 11/10 Q1014
Loading
Personal Weather Stations






























Interactive Weather Map New forecast layout! Learn more

10-Day Weather Forecast

Advertisements
Track Severe Weather on mobile